Dillingham Airport
PADL : now visible

Aeroporto :











RITROVATECI SU...

 
LOGIN :

Iscrizione | Disclaimer

   EN    FR    IT 

 









Sommario :    VFR   VFR Marginale   IFR   IFR Intensivo   IFR Molto Intensivo
Visibilità : 
Base nubi : 
>= 8 km
>= 3000ft
5 / 8 km
1000 / 3000 ft
1500m / 5 km
500 / 1000 ft
800 / 1500m
200 / 500 ft
< 800m
< 200 ft
Simboli :   Temporali  Nebbia  Neve Forte  Precipitazioni Forti  Vento > 20 kt






- Altitudine del aeroporto : 81 ft
- Codice IATA : DLG


PADL - Dillingham

ULTIMO METAR :
  • 011956Z 09013G18KT 10SM SCT100 14/06 A2949 RMK AO2 SLP987 T01390056

METARs OBSOLETI :
  • 011856Z 06012G17KT 10SM CLR 13/07 A2948 RMK AO2 SLP987 T01280067
  • 011756Z 06013KT 10SM FEW110 11/06 A2949 RMK AO2 SLP989 T01110061 10111 20056 51001

TAF PADL
Valido dal 01 a 18 ore il 02 a 18 ore UTC


011728Z 0118/0218 02015G25KT P6SM BKN100
FM020100 05018G30KT P6SM VCSH SCT040 BKN060
FM020600 06009KT P6SM BKN100
FIR PAZA / America del Nord



MetMap, La meteo Aeronautica in un colpo d'occhio ! - Copyright ORBIFLY Dicembre 2007 - Disclaimer

ORBIFLY MET'MAP TEAM :

Programmazione e sviluppo : Alexandra Zaïnal
Concezione : Baudouin d'Aumeries
Aiuto per la programmazione : Marc-Olivier Méhu
Supporto tecnico e logistico : Manuel Goepfert
Aiuto per la traduzione : Arnaldo La Scala

Contatto : metmap@orbifly.com




FONTI E CREDITI :

   NOAA       Earth
Advisory